createdAt,value
2017-10-01T00:01:15.496Z,14.53
2017-10-01T00:03:43.604Z,13.67
2017-10-01T00:06:12.512Z,14.20
2017-10-01T00:08:40.642Z,13.73
2017-10-01T00:11:08.751Z,14.10
2017-10-01T00:13:37.612Z,15.60
2017-10-01T00:16:06.486Z,13.90
2017-10-01T00:18:34.605Z,14.40
2017-10-01T00:21:02.726Z,13.53
2017-10-01T00:23:30.854Z,13.80
2017-10-01T00:25:58.987Z,14.33
2017-10-01T00:28:27.964Z,15.20
2017-10-01T00:30:56.103Z,16.13
2017-10-01T00:33:24.212Z,14.97
2017-10-01T00:35:52.503Z,15.37
2017-10-01T00:38:20.624Z,15.03
2017-10-01T00:40:48.735Z,13.97
2017-10-01T00:43:16.853Z,14.07
2017-10-01T00:45:44.955Z,14.17
2017-10-01T00:48:13.069Z,14.60
2017-10-01T00:50:41.170Z,14.73
2017-10-01T00:53:09.295Z,15.20
2017-10-01T00:55:37.470Z,15.17
2017-10-01T00:58:05.580Z,13.87
2017-10-01T01:00:33.712Z,15.40
2017-10-01T01:03:01.939Z,15.37
2017-10-01T01:05:30.066Z,14.73
2017-10-01T01:07:58.174Z,15.70
2017-10-01T01:10:26.287Z,14.37
2017-10-01T01:12:54.382Z,16.40
2017-10-01T01:17:58.408Z,16.03
2017-10-01T01:20:26.512Z,15.03
2017-10-01T01:22:55.369Z,16.00
2017-10-01T01:25:24.283Z,15.53
2017-10-01T01:27:52.382Z,13.93
2017-10-01T01:30:21.264Z,15.43
2017-10-01T01:32:49.383Z,16.50
2017-10-01T01:35:17.530Z,16.27
2017-10-01T01:37:45.686Z,15.37
2017-10-01T01:40:13.818Z,14.80
2017-10-01T01:42:41.937Z,15.57
2017-10-01T01:45:10.047Z,16.07
2017-10-01T01:47:38.890Z,15.07
2017-10-01T01:50:07.026Z,15.80
2017-10-01T01:52:35.137Z,15.90
2017-10-01T01:55:03.209Z,14.77
2017-10-01T01:57:32.151Z,16.07
2017-10-01T02:00:00.850Z,16.43
2017-10-01T02:02:28.969Z,15.63
2017-10-01T02:04:57.082Z,14.23
2017-10-01T02:07:25.187Z,15.23
2017-10-01T02:09:53.332Z,14.53
2017-10-01T02:12:21.453Z,15.27
2017-10-01T02:14:49.571Z,15.03
2017-10-01T02:17:17.654Z,15.37
2017-10-01T02:19:45.761Z,16.20
2017-10-01T02:22:14.076Z,16.03
2017-10-01T02:24:42.202Z,14.50
2017-10-01T02:27:10.412Z,16.20
2017-10-01T02:29:38.522Z,15.70
2017-10-01T02:32:07.420Z,16.37
2017-10-01T02:34:35.530Z,15.77
2017-10-01T02:37:03.643Z,16.57
2017-10-01T02:39:31.756Z,15.23
2017-10-01T02:41:59.841Z,16.93
2017-10-01T02:44:27.943Z,15.70
2017-10-01T02:46:56.048Z,15.37
2017-10-01T02:49:24.957Z,16.00
2017-10-01T02:51:53.065Z,15.13
2017-10-01T02:54:21.192Z,16.10
2017-10-01T02:56:49.314Z,16.17
2017-10-01T02:59:17.605Z,16.27
2017-10-01T03:01:45.704Z,16.50
2017-10-01T03:04:13.828Z,16.40
2017-10-01T03:06:42.711Z,16.20
2017-10-01T03:09:10.840Z,16.07
2017-10-01T03:11:38.974Z,16.90
2017-10-01T03:14:07.865Z,15.70
2017-10-01T03:16:36.060Z,15.63
2017-10-01T03:19:04.930Z,15.50
2017-10-01T03:21:33.030Z,14.63
2017-10-01T03:24:02.130Z,16.33
2017-10-01T03:26:30.278Z,14.67
2017-10-01T03:28:58.458Z,15.43
2017-10-01T03:31:26.595Z,16.17
2017-10-01T03:33:54.722Z,15.40
2017-10-01T03:36:22.817Z,16.13
2017-10-01T03:38:52.432Z,15.77
2017-10-01T03:41:21.297Z,16.27
2017-10-01T03:43:49.439Z,16.13
2017-10-01T03:46:18.306Z,16.23
2017-10-01T03:48:46.425Z,15.83
2017-10-01T03:51:14.538Z,16.40
2017-10-01T03:53:42.698Z,15.30
2017-10-01T03:56:11.598Z,17.33
2017-10-01T03:58:39.701Z,17.50
2017-10-01T04:01:07.813Z,16.00
2017-10-01T04:03:35.910Z,16.90
2017-10-01T04:06:04.790Z,16.90
2017-10-01T04:08:33.490Z,15.17
2017-10-01T04:11:01.605Z,15.67
2017-10-01T04:13:29.737Z,17.53
2017-10-01T04:15:57.850Z,16.07
2017-10-01T04:18:26.761Z,17.80
2017-10-01T04:20:54.873Z,17.97
2017-10-01T04:23:23.743Z,18.37
2017-10-01T04:25:51.881Z,18.77
2017-10-01T04:28:20.751Z,18.60
2017-10-01T04:30:48.895Z,17.17
2017-10-01T04:33:17.015Z,18.00
2017-10-01T04:35:45.293Z,18.50
2017-10-01T04:38:13.420Z,17.60
2017-10-01T04:40:42.289Z,18.13
2017-10-01T04:43:10.389Z,18.60
2017-10-01T04:45:39.281Z,22.40
2017-10-01T04:48:08.126Z,18.03
2017-10-01T04:50:37.061Z,19.27
2017-10-01T04:53:05.147Z,20.47
2017-10-01T04:55:33.277Z,20.10
2017-10-01T04:58:01.444Z,21.00
2017-10-01T05:00:29.585Z,20.33
2017-10-01T05:02:58.303Z,21.97
2017-10-01T05:05:26.398Z,21.60
2017-10-01T05:07:54.527Z,20.73
2017-10-01T05:10:22.669Z,21.20
2017-10-01T05:12:50.805Z,23.50
2017-10-01T05:15:18.897Z,22.17
2017-10-01T05:17:47.073Z,24.80
2017-10-01T05:20:15.998Z,23.87
2017-10-01T05:22:44.101Z,24.10
2017-10-01T05:25:12.977Z,26.00
2017-10-01T05:27:41.360Z,25.27
2017-10-01T05:30:10.228Z,27.80
2017-10-01T05:32:38.425Z,26.60
2017-10-01T05:35:06.496Z,26.97
2017-10-01T05:37:34.632Z,27.80
2017-10-01T05:40:02.721Z,26.13
2017-10-01T05:42:30.839Z,27.40
2017-10-01T05:44:58.951Z,28.37
2017-10-01T05:47:27.058Z,28.70
2017-10-01T05:49:55.149Z,29.43
2017-10-01T05:52:23.338Z,29.80
2017-10-01T05:54:51.456Z,30.00
2017-10-01T05:57:19.561Z,28.53
2017-10-01T05:59:47.687Z,32.90
2017-10-01T06:02:15.790Z,29.43
2017-10-01T06:04:44.252Z,28.27
2017-10-01T06:07:13.115Z,30.07
2017-10-01T06:09:41.225Z,28.60
2017-10-01T06:12:09.344Z,28.40
2017-10-01T06:14:38.230Z,31.57
2017-10-01T06:17:07.843Z,29.67
2017-10-01T06:19:35.957Z,28.87
2017-10-01T06:22:04.855Z,33.07
2017-10-01T06:24:33.009Z,29.80
2017-10-01T06:27:01.124Z,31.50
2017-10-01T06:29:29.250Z,33.93
2017-10-01T06:31:57.375Z,43.00
2017-10-01T06:34:25.456Z,32.00
2017-10-01T06:36:53.593Z,31.97
2017-10-01T06:39:21.692Z,31.10
2017-10-01T06:41:49.804Z,37.70
2017-10-01T06:44:18.675Z,38.80
2017-10-01T06:46:47.557Z,37.33
2017-10-01T06:49:16.485Z,39.07
2017-10-01T06:51:45.399Z,35.50
2017-10-01T06:54:13.573Z,34.40
2017-10-01T06:56:41.797Z,34.63
2017-10-01T06:59:09.969Z,32.33
2017-10-01T07:01:38.152Z,32.03
2017-10-01T07:04:06.267Z,30.47
2017-10-01T07:06:42.205Z,30.00
2017-10-01T07:09:10.394Z,30.50
2017-10-01T07:11:38.518Z,30.50
2017-10-01T07:14:06.631Z,27.73
2017-10-01T07:16:34.784Z,27.20
2017-10-01T07:19:02.929Z,25.67
2017-10-01T07:21:31.056Z,24.60
2017-10-01T07:24:00.018Z,33.70
2017-10-01T07:26:28.105Z,27.33
2017-10-01T07:28:56.227Z,26.17
2017-10-01T07:31:25.109Z,33.80
2017-10-01T07:33:53.252Z,62.50
2017-10-01T07:36:21.365Z,36.23
2017-10-01T07:38:49.497Z,19.70
2017-10-01T07:41:18.414Z,37.10
2017-10-01T07:43:47.286Z,17.20
2017-10-01T07:46:15.403Z,29.77
2017-10-01T07:48:43.517Z,22.53
2017-10-01T07:51:11.694Z,15.83
2017-10-01T07:53:39.791Z,10.53
2017-10-01T07:56:08.593Z,7.80
2017-10-01T07:58:36.702Z,6.73
2017-10-01T08:01:05.589Z,7.97
2017-10-01T08:03:33.689Z,5.40
2017-10-01T08:06:01.834Z,3.50
2017-10-01T08:08:29.957Z,2.37
2017-10-01T08:10:58.093Z,2.10
2017-10-01T08:13:26.232Z,1.77
2017-10-01T08:15:55.727Z,1.50
2017-10-01T08:18:23.835Z,1.63
2017-10-01T08:20:51.969Z,1.33
2017-10-01T08:23:20.115Z,1.43
2017-10-01T08:25:48.225Z,1.33
2017-10-01T08:28:16.374Z,1.77
2017-10-01T08:30:44.466Z,1.23
2017-10-01T08:33:13.239Z,1.13
2017-10-01T08:35:42.054Z,1.70
2017-10-01T08:38:11.704Z,1.90
2017-10-01T08:40:40.011Z,1.10
2017-10-01T08:43:08.464Z,2.40
2017-10-01T08:45:37.865Z,2.67
2017-10-01T08:48:07.638Z,2.13
2017-10-01T08:50:35.825Z,2.10
2017-10-01T08:53:04.679Z,2.60
2017-10-01T08:55:32.780Z,2.80
2017-10-01T08:58:01.700Z,2.30
2017-10-01T09:00:30.547Z,3.17
2017-10-01T09:02:59.425Z,3.10
2017-10-01T09:05:27.550Z,3.97
2017-10-01T09:07:55.664Z,3.47
2017-10-01T09:10:23.891Z,4.17
2017-10-01T09:12:51.975Z,4.70
2017-10-01T09:15:20.077Z,3.53
2017-10-01T09:17:48.155Z,2.83
2017-10-01T09:20:16.257Z,2.83
2017-10-01T09:22:45.115Z,57.17
2017-10-01T09:25:13.313Z,4.80
2017-10-01T09:27:41.450Z,3.00
2017-10-01T09:30:10.365Z,2.67
2017-10-01T09:32:38.570Z,2.87
2017-10-01T09:35:07.528Z,2.50
2017-10-01T09:37:35.713Z,2.13
2017-10-01T09:40:03.801Z,2.03
2017-10-01T09:42:31.969Z,2.10
2017-10-01T09:45:00.083Z,1.70
2017-10-01T09:47:28.184Z,1.40
2017-10-01T09:49:56.323Z,1.53
2017-10-01T09:52:24.465Z,1.47
2017-10-01T09:54:52.559Z,1.20
2017-10-01T09:57:20.630Z,2.07
2017-10-01T09:59:48.742Z,1.50
2017-10-01T10:02:16.829Z,1.87
2017-10-01T10:04:44.945Z,1.97
2017-10-01T10:07:13.144Z,1.60
2017-10-01T10:09:41.230Z,1.70
2017-10-01T10:12:09.326Z,1.70
2017-10-01T10:14:38.190Z,3.23
2017-10-01T10:17:06.378Z,4.10
2017-10-01T10:19:34.592Z,3.07
2017-10-01T10:22:03.516Z,2.90
2017-10-01T10:24:31.602Z,1.90
2017-10-01T10:27:01.221Z,1.87
2017-10-01T10:29:29.414Z,1.37
2017-10-01T10:31:57.521Z,1.60
2017-10-01T10:34:25.659Z,1.50
2017-10-01T10:36:53.860Z,1.70
2017-10-01T10:39:21.964Z,1.30
2017-10-01T10:41:50.085Z,1.80
2017-10-01T10:44:18.237Z,1.90
2017-10-01T10:46:47.197Z,1.60
2017-10-01T10:49:15.817Z,1.57
2017-10-01T10:51:43.971Z,1.83
2017-10-01T10:54:12.924Z,1.70
2017-10-01T10:56:41.098Z,1.47
2017-10-01T10:59:09.179Z,1.83
2017-10-01T11:01:37.483Z,1.30
2017-10-01T11:04:05.622Z,1.57
2017-10-01T11:06:33.741Z,1.50
2017-10-01T11:09:02.613Z,1.43
2017-10-01T11:11:30.738Z,1.80
2017-10-01T11:13:58.882Z,1.40
2017-10-01T11:16:27.155Z,8.63
2017-10-01T11:18:56.106Z,6.40
2017-10-01T11:21:24.982Z,5.20
2017-10-01T11:23:53.821Z,2.63
2017-10-01T11:26:22.125Z,3.70
2017-10-01T11:28:50.567Z,1.90
2017-10-01T11:31:18.732Z,2.33
2017-10-01T11:33:46.833Z,2.03
2017-10-01T11:36:15.761Z,2.70
2017-10-01T11:38:43.884Z,2.87
2017-10-01T11:41:12.039Z,4.70
2017-10-01T11:43:40.120Z,7.33
2017-10-01T11:46:08.319Z,16.10
2017-10-01T11:48:36.433Z,15.77
2017-10-01T11:51:04.559Z,39.83
2017-10-01T11:53:32.674Z,19.60
2017-10-01T11:56:01.602Z,8.67
2017-10-01T11:58:29.704Z,16.43
2017-10-01T12:00:58.578Z,3.33
2017-10-01T12:03:27.439Z,13.80
2017-10-01T12:05:55.536Z,12.60
2017-10-01T12:08:23.698Z,10.00
2017-10-01T12:10:51.769Z,9.87
2017-10-01T12:13:20.465Z,10.80
2017-10-01T12:15:49.338Z,6.83
2017-10-01T12:18:17.427Z,3.70
2017-10-01T12:20:45.542Z,3.13
2017-10-01T12:23:14.405Z,3.27
2017-10-01T12:25:42.504Z,3.70
2017-10-01T12:28:10.616Z,2.07
2017-10-01T12:30:38.696Z,2.07
2017-10-01T12:33:06.793Z,1.90
2017-10-01T12:35:35.661Z,1.60
2017-10-01T12:38:03.746Z,1.33
2017-10-01T12:40:32.564Z,1.93
2017-10-01T12:43:00.738Z,2.07
2017-10-01T12:45:29.117Z,2.67
2017-10-01T12:47:57.200Z,2.70
2017-10-01T12:50:25.285Z,2.33
2017-10-01T12:52:53.344Z,2.50
2017-10-01T12:55:21.430Z,2.10
2017-10-01T12:57:49.531Z,1.90
2017-10-01T13:00:24.121Z,2.10
2017-10-01T13:02:52.210Z,1.50
2017-10-01T13:05:20.284Z,2.00
2017-10-01T13:07:49.149Z,2.30
2017-10-01T13:10:17.319Z,1.90
2017-10-01T13:12:46.100Z,1.73
2017-10-01T13:15:14.189Z,1.90
2017-10-01T13:17:42.261Z,2.30
2017-10-01T13:20:10.347Z,1.80
2017-10-01T13:22:38.425Z,1.57
2017-10-01T13:25:06.533Z,2.20
2017-10-01T13:27:34.606Z,2.00
2017-10-01T13:30:02.673Z,1.83
2017-10-01T13:32:30.766Z,1.47
2017-10-01T13:34:58.846Z,2.73
2017-10-01T13:37:26.912Z,1.80
2017-10-01T13:39:55.001Z,1.20
2017-10-01T13:42:23.075Z,2.30
2017-10-01T13:44:51.179Z,28.67
2017-10-01T13:47:19.317Z,67.67
2017-10-01T13:49:47.436Z,9.47
2017-10-01T13:52:16.260Z,63.27
2017-10-01T13:54:44.364Z,24.77
2017-10-01T13:57:13.220Z,16.63
2017-10-01T13:59:41.354Z,20.67
2017-10-01T14:02:10.221Z,25.13
2017-10-01T14:04:38.334Z,19.40
2017-10-01T14:07:06.434Z,3.73
2017-10-01T14:09:35.295Z,2.10
2017-10-01T14:12:04.130Z,1.90
2017-10-01T14:14:32.200Z,1.77
2017-10-01T14:17:00.282Z,1.70
2017-10-01T14:19:28.371Z,1.97
2017-10-01T14:21:56.427Z,2.30
2017-10-01T14:24:24.561Z,1.80
2017-10-01T14:26:52.633Z,1.80
2017-10-01T14:29:20.713Z,1.90
2017-10-01T14:31:48.825Z,2.00
2017-10-01T14:34:17.355Z,1.80
2017-10-01T14:36:46.196Z,2.57
2017-10-01T14:39:14.266Z,2.00
2017-10-01T14:41:42.369Z,2.07
2017-10-01T14:44:10.516Z,1.90
2017-10-01T14:46:38.593Z,1.87
2017-10-01T14:49:06.707Z,2.00
2017-10-01T14:51:34.842Z,1.87
2017-10-01T14:54:02.934Z,1.40
2017-10-01T14:56:31.077Z,1.80
2017-10-01T14:58:59.692Z,2.20
2017-10-01T15:01:27.867Z,2.20
2017-10-01T15:03:55.937Z,2.00
2017-10-01T15:06:24.106Z,1.80
2017-10-01T15:08:52.182Z,1.70
2017-10-01T15:11:21.791Z,2.63
2017-10-01T15:13:50.649Z,1.90
2017-10-01T15:16:18.752Z,1.63
2017-10-01T15:18:46.828Z,1.93
2017-10-01T15:21:14.931Z,1.80
2017-10-01T15:23:42.995Z,1.70
2017-10-01T15:26:11.847Z,1.83
2017-10-01T15:28:39.952Z,1.83
2017-10-01T15:31:08.829Z,2.77
2017-10-01T15:33:36.900Z,1.63
2017-10-01T15:36:05.077Z,2.40
2017-10-01T15:38:33.931Z,1.67
2017-10-01T15:41:02.023Z,1.53
2017-10-01T15:43:30.862Z,1.80
2017-10-01T15:45:59.054Z,1.90
2017-10-01T15:48:27.157Z,1.80
2017-10-01T15:50:56.470Z,2.63
2017-10-01T15:53:24.582Z,1.80
2017-10-01T15:55:53.420Z,1.30
2017-10-01T15:58:21.531Z,1.80
2017-10-01T16:00:49.628Z,1.80
2017-10-01T16:03:17.745Z,1.83
2017-10-01T16:05:45.846Z,2.20
2017-10-01T16:08:13.961Z,2.20
2017-10-01T16:10:42.049Z,2.13
2017-10-01T16:13:10.122Z,2.03
2017-10-01T16:15:38.961Z,1.77
2017-10-01T16:18:07.802Z,1.90
2017-10-01T16:20:36.695Z,2.30
2017-10-01T16:23:04.766Z,2.20
2017-10-01T16:25:32.848Z,2.50
2017-10-01T16:28:00.942Z,2.23
2017-10-01T16:30:29.028Z,2.10
2017-10-01T16:32:57.136Z,2.37
2017-10-01T16:35:25.230Z,2.40
2017-10-01T16:37:53.303Z,2.40
2017-10-01T16:40:22.152Z,3.03
2017-10-01T16:42:50.245Z,2.70
2017-10-01T16:45:18.330Z,3.40
2017-10-01T16:47:46.463Z,3.10
2017-10-01T16:50:14.547Z,2.20
2017-10-01T16:52:42.750Z,2.17
2017-10-01T16:55:10.904Z,3.13
2017-10-01T16:57:39.005Z,2.77
2017-10-01T17:00:07.084Z,3.50
2017-10-01T17:02:35.156Z,3.93
2017-10-01T17:05:03.276Z,4.73
2017-10-01T17:07:31.356Z,5.63
2017-10-01T17:10:00.184Z,4.93
2017-10-01T17:12:28.304Z,4.17
2017-10-01T17:14:56.391Z,4.10
2017-10-01T17:17:24.492Z,3.67
2017-10-01T17:19:52.589Z,3.70
2017-10-01T17:22:20.693Z,4.90
2017-10-01T17:24:48.764Z,4.80
2017-10-01T17:27:18.376Z,4.20
2017-10-01T17:29:46.513Z,4.40
2017-10-01T17:32:14.607Z,4.73
2017-10-01T17:34:43.369Z,4.90
2017-10-01T17:37:11.453Z,4.80
2017-10-01T17:39:39.532Z,5.60
2017-10-01T17:42:07.625Z,4.80
2017-10-01T17:44:36.574Z,4.90
2017-10-01T17:47:04.698Z,5.07
2017-10-01T17:49:32.809Z,5.90
2017-10-01T17:52:00.895Z,9.00
2017-10-01T17:54:29.299Z,8.90
2017-10-01T17:56:57.423Z,6.90
2017-10-01T17:59:26.271Z,7.33
2017-10-01T18:01:55.152Z,6.87
2017-10-01T18:04:23.249Z,6.90
2017-10-01T18:06:52.490Z,6.20
2017-10-01T18:09:20.633Z,6.43
2017-10-01T18:11:48.750Z,7.20
2017-10-01T18:14:17.613Z,6.70
2017-10-01T18:16:45.735Z,7.47
2017-10-01T18:19:15.334Z,9.23
2017-10-01T18:21:44.234Z,9.90
2017-10-01T18:24:13.923Z,7.97
2017-10-01T18:26:42.015Z,8.10
2017-10-01T18:29:10.138Z,7.00
2017-10-01T18:31:38.242Z,7.53
2017-10-01T18:34:06.389Z,8.47
2017-10-01T18:36:34.461Z,7.13
2017-10-01T18:39:02.568Z,6.90
2017-10-01T18:41:30.755Z,6.20
2017-10-01T18:43:58.818Z,6.57
2017-10-01T18:46:27.737Z,5.70
2017-10-01T18:48:56.424Z,6.80
2017-10-01T18:51:25.320Z,9.60
2017-10-01T18:53:54.169Z,7.83
2017-10-01T18:56:22.365Z,8.53
2017-10-01T18:58:52.302Z,7.80
2017-10-01T19:01:20.570Z,10.50
2017-10-01T19:03:49.305Z,8.77
2017-10-01T19:06:17.412Z,7.50
2017-10-01T19:08:45.573Z,6.50
2017-10-01T19:11:13.688Z,8.00
2017-10-01T19:13:41.769Z,7.40
2017-10-01T19:16:09.923Z,6.33
2017-10-01T19:18:38.083Z,9.63
2017-10-01T19:21:06.278Z,7.47
2017-10-01T19:23:35.193Z,6.23
2017-10-01T19:26:03.310Z,6.87
2017-10-01T19:28:31.397Z,6.30
2017-10-01T19:31:00.294Z,6.30
2017-10-01T19:33:28.438Z,6.20
2017-10-01T19:35:56.512Z,7.10
2017-10-01T19:38:25.358Z,8.10
2017-10-01T19:40:53.469Z,8.07
2017-10-01T19:43:21.658Z,8.50
2017-10-01T19:45:50.477Z,9.80
2017-10-01T19:48:18.606Z,10.40
2017-10-01T19:50:46.820Z,9.73
2017-10-01T19:53:14.937Z,9.33
2017-10-01T19:55:43.494Z,10.53
2017-10-01T19:58:11.632Z,9.80
2017-10-01T20:00:40.507Z,10.53
2017-10-01T20:03:08.663Z,11.20
2017-10-01T20:05:36.852Z,10.50
2017-10-01T20:08:05.005Z,10.70
2017-10-01T20:10:33.177Z,11.90
2017-10-01T20:13:01.277Z,13.33
2017-10-01T20:15:29.445Z,13.40
2017-10-01T20:17:59.105Z,13.90
2017-10-01T20:20:27.205Z,14.20
2017-10-01T20:22:55.318Z,15.37
2017-10-01T20:25:23.418Z,14.90
2017-10-01T20:27:51.529Z,15.23
2017-10-01T20:30:19.653Z,16.60
2017-10-01T20:32:48.092Z,14.53
2017-10-01T20:35:16.197Z,22.10
2017-10-01T20:37:44.307Z,15.20
2017-10-01T20:40:12.396Z,14.00
2017-10-01T20:42:41.298Z,14.60
2017-10-01T20:45:09.453Z,14.20
2017-10-01T20:47:37.619Z,13.60
2017-10-01T20:50:06.522Z,13.23
2017-10-01T20:52:34.636Z,12.00
2017-10-01T20:55:02.841Z,13.20
2017-10-01T20:57:30.969Z,14.37
2017-10-01T20:59:59.826Z,13.53
2017-10-01T21:02:27.931Z,14.13
2017-10-01T21:04:56.036Z,14.30
2017-10-01T21:07:24.177Z,12.57
2017-10-01T21:09:52.342Z,12.00
2017-10-01T21:12:20.494Z,12.13
2017-10-01T21:14:48.752Z,10.90
2017-10-01T21:17:16.910Z,11.27
2017-10-01T21:19:45.045Z,11.60
2017-10-01T21:22:13.859Z,11.80
2017-10-01T21:24:41.962Z,12.30
2017-10-01T21:27:10.078Z,10.73
2017-10-01T21:29:38.973Z,11.10
2017-10-01T21:32:07.110Z,11.40
2017-10-01T21:34:35.216Z,11.93
2017-10-01T21:37:03.317Z,14.37
2017-10-01T21:39:31.407Z,12.33
2017-10-01T21:41:59.498Z,11.97
2017-10-01T21:44:27.616Z,12.40
2017-10-01T21:46:56.492Z,12.90
2017-10-01T21:49:24.592Z,12.83
2017-10-01T21:51:53.964Z,13.67
2017-10-01T21:54:22.035Z,12.83
2017-10-01T21:56:50.301Z,12.47
2017-10-01T21:59:18.452Z,11.37
2017-10-01T22:01:46.596Z,11.00
2017-10-01T22:04:14.658Z,11.37
2017-10-01T22:06:42.853Z,11.90
2017-10-01T22:09:10.981Z,11.80
2017-10-01T22:11:39.122Z,11.77
2017-10-01T22:14:08.077Z,12.90
2017-10-01T22:16:36.196Z,12.53
2017-10-01T22:19:04.304Z,12.10
2017-10-01T22:21:32.437Z,12.67
2017-10-01T22:24:00.524Z,13.83
2017-10-01T22:26:28.678Z,14.60
2017-10-01T22:28:57.607Z,12.33
2017-10-01T22:31:27.240Z,12.30
2017-10-01T22:33:56.118Z,11.70
2017-10-01T22:36:24.189Z,11.80
2017-10-01T22:38:52.296Z,11.57
2017-10-01T22:41:20.476Z,12.80
2017-10-01T22:43:48.668Z,12.83
2017-10-01T22:46:16.808Z,13.10
2017-10-01T22:48:45.080Z,12.80
2017-10-01T22:51:13.160Z,14.03
2017-10-01T22:53:41.283Z,13.13
2017-10-01T22:56:09.466Z,11.47
2017-10-01T22:58:37.610Z,13.53
2017-10-01T23:01:05.756Z,11.13
2017-10-01T23:03:33.850Z,14.43
2017-10-01T23:06:02.183Z,13.30
2017-10-01T23:08:31.055Z,13.47
2017-10-01T23:10:59.159Z,12.80
2017-10-01T23:13:27.308Z,14.17
2017-10-01T23:15:55.454Z,14.77
2017-10-01T23:18:24.326Z,13.20
2017-10-01T23:20:52.495Z,12.83
2017-10-01T23:23:21.510Z,13.43
2017-10-01T23:25:49.672Z,13.00
2017-10-01T23:28:17.790Z,14.40
2017-10-01T23:30:46.630Z,13.77
2017-10-01T23:33:14.839Z,14.30
2017-10-01T23:35:42.993Z,13.33
2017-10-01T23:38:11.116Z,13.77
2017-10-01T23:40:40.013Z,13.60
2017-10-01T23:43:08.158Z,13.47
2017-10-01T23:45:37.711Z,14.10
2017-10-01T23:48:05.890Z,18.10
2017-10-01T23:50:34.001Z,18.33
2017-10-01T23:53:02.137Z,14.10
2017-10-01T23:55:31.026Z,14.20
2017-10-01T23:57:59.184Z,15.53
